createdAt,value
2019-05-07T00:02:13.458Z,8.63
2019-05-07T00:04:40.131Z,7.58
2019-05-07T00:07:07.030Z,7.72
2019-05-07T00:09:33.199Z,8.60
2019-05-07T00:11:59.368Z,9.13
2019-05-07T00:14:25.553Z,11.20
2019-05-07T00:16:53.441Z,10.28
2019-05-07T00:19:23.108Z,6.42
2019-05-07T00:21:49.518Z,9.10
2019-05-07T00:24:15.690Z,7.55
2019-05-07T00:26:43.100Z,7.55
2019-05-07T00:29:09.454Z,8.63
2019-05-07T00:31:36.052Z,6.78
2019-05-07T00:34:02.844Z,9.98
2019-05-07T00:36:36.970Z,9.15
2019-05-07T00:39:06.636Z,10.55
2019-05-07T00:41:34.816Z,7.40
2019-05-07T00:44:03.242Z,6.33
2019-05-07T00:46:32.175Z,10.80
2019-05-07T00:48:58.527Z,8.70
2019-05-07T00:51:27.697Z,7.83
2019-05-07T00:53:53.975Z,9.60
2019-05-07T00:56:22.214Z,6.83
2019-05-07T00:58:48.444Z,9.03
2019-05-07T01:01:14.596Z,7.75
2019-05-07T01:03:42.413Z,6.35
2019-05-07T01:06:08.854Z,5.92
2019-05-07T01:08:35.015Z,7.90
2019-05-07T01:11:02.253Z,10.05
2019-05-07T01:13:28.589Z,10.43
2019-05-07T01:15:54.798Z,10.00
2019-05-07T01:18:23.021Z,7.97
2019-05-07T01:20:49.048Z,6.85
2019-05-07T01:23:15.225Z,8.58
2019-05-07T01:25:43.061Z,7.10
2019-05-07T01:28:09.544Z,9.28
2019-05-07T01:30:35.703Z,8.90
2019-05-07T01:33:03.825Z,11.10
2019-05-07T01:35:33.110Z,8.35
2019-05-07T01:37:59.289Z,11.33
2019-05-07T01:40:25.473Z,6.37
2019-05-07T01:42:53.000Z,7.72
2019-05-07T01:45:19.401Z,12.78
2019-05-07T01:47:45.560Z,7.22
2019-05-07T01:50:13.325Z,7.55
2019-05-07T01:52:39.709Z,7.30
2019-05-07T01:55:05.966Z,8.88
2019-05-07T01:57:32.747Z,9.50
2019-05-07T01:59:59.006Z,8.50
2019-05-07T02:02:27.077Z,8.30
2019-05-07T02:04:55.145Z,12.53
2019-05-07T02:07:23.224Z,7.12
2019-05-07T02:10:03.006Z,7.30
2019-05-07T02:12:32.024Z,6.75
2019-05-07T02:14:58.217Z,7.30
2019-05-07T02:17:24.373Z,7.37
2019-05-07T02:19:52.619Z,8.68
2019-05-07T02:22:18.640Z,6.83
2019-05-07T02:24:44.800Z,8.98
2019-05-07T02:27:12.605Z,7.30
2019-05-07T02:29:38.979Z,6.70
2019-05-07T02:32:05.145Z,8.35
2019-05-07T02:34:34.204Z,7.92
2019-05-07T02:36:59.778Z,6.65
2019-05-07T02:39:33.315Z,6.25
2019-05-07T02:41:58.994Z,7.10
2019-05-07T02:44:25.163Z,7.33
2019-05-07T02:46:54.350Z,5.47
2019-05-07T02:49:25.227Z,6.03
2019-05-07T02:52:00.304Z,8.98
2019-05-07T02:54:28.498Z,8.50
2019-05-07T02:59:17.703Z,9.55
2019-05-07T03:01:43.880Z,6.72
2019-05-07T03:04:12.679Z,6.17
2019-05-07T03:06:38.212Z,7.92
2019-05-07T03:09:05.686Z,8.35
2019-05-07T03:11:33.974Z,8.53
2019-05-07T03:14:02.956Z,5.90
2019-05-07T03:16:41.506Z,8.65
2019-05-07T03:18:56.919Z,7.28
2019-05-07T03:21:23.730Z,10.00
2019-05-07T03:24:03.398Z,8.95
2019-05-07T03:26:34.115Z,11.35
2019-05-07T03:29:03.892Z,9.85
2019-05-07T03:31:47.587Z,8.75
2019-05-07T03:34:25.620Z,9.45
2019-05-07T03:36:56.648Z,7.60
2019-05-07T03:39:23.824Z,8.85
2019-05-07T03:41:49.407Z,10.03
2019-05-07T03:44:23.824Z,9.55
2019-05-07T03:47:00.608Z,7.92
2019-05-07T03:49:29.393Z,8.70
2019-05-07T03:51:56.041Z,9.40
2019-05-07T03:54:23.970Z,10.08
2019-05-07T03:56:52.821Z,8.83
2019-05-07T03:59:18.618Z,9.08
2019-05-07T04:01:44.832Z,6.75
2019-05-07T04:04:13.159Z,8.75
2019-05-07T04:06:39.262Z,9.55
2019-05-07T04:09:05.432Z,11.12
2019-05-07T04:11:33.707Z,8.38
2019-05-07T04:14:02.399Z,7.42
2019-05-07T04:16:28.132Z,9.85
2019-05-07T04:18:54.314Z,8.20
2019-05-07T04:21:23.078Z,7.62
2019-05-07T04:23:50.565Z,9.95
2019-05-07T04:26:27.505Z,6.87
2019-05-07T04:28:58.247Z,8.50
2019-05-07T04:31:26.293Z,10.55
2019-05-07T04:33:53.470Z,9.08
2019-05-07T04:36:23.046Z,7.67
2019-05-07T04:38:49.515Z,6.50
2019-05-07T04:41:15.776Z,7.83
2019-05-07T04:43:43.522Z,6.65
2019-05-07T04:46:09.922Z,6.97
2019-05-07T04:48:36.092Z,6.45
2019-05-07T04:51:04.169Z,7.40
2019-05-07T04:53:32.862Z,5.05
2019-05-07T04:55:58.547Z,6.22
2019-05-07T04:58:26.552Z,6.72
2019-05-07T05:00:54.037Z,7.28
2019-05-07T05:03:23.722Z,7.55
2019-05-07T05:05:52.943Z,7.03
2019-05-07T05:08:18.588Z,7.75
2019-05-07T05:10:44.775Z,6.12
2019-05-07T05:13:12.895Z,6.97
2019-05-07T05:15:39.151Z,8.60
2019-05-07T05:18:05.364Z,6.90
2019-05-07T05:20:42.733Z,7.75
2019-05-07T05:23:17.117Z,4.75
2019-05-07T05:25:43.458Z,5.33
2019-05-07T05:28:12.359Z,5.83
2019-05-07T05:30:46.057Z,6.28
2019-05-07T05:33:12.765Z,4.35
2019-05-07T05:35:39.221Z,7.30
2019-05-07T05:38:05.402Z,6.20
2019-05-07T05:40:32.036Z,5.30
2019-05-07T05:43:01.938Z,4.87
2019-05-07T05:45:35.797Z,8.40
2019-05-07T05:48:07.430Z,6.10
2019-05-07T05:50:53.679Z,5.47
2019-05-07T05:53:27.406Z,5.78
2019-05-07T05:55:54.573Z,6.92
2019-05-07T05:58:39.240Z,6.35
2019-05-07T06:01:23.897Z,5.72
2019-05-07T06:03:57.844Z,5.25
2019-05-07T06:06:34.917Z,5.22
2019-05-07T06:09:03.008Z,6.25
2019-05-07T06:11:45.316Z,5.15
2019-05-07T06:14:16.440Z,6.22
2019-05-07T06:16:47.561Z,5.67
2019-05-07T06:19:22.665Z,5.78
2019-05-07T06:21:59.444Z,7.90
2019-05-07T06:24:33.571Z,6.75
2019-05-07T06:26:59.744Z,7.10
2019-05-07T06:29:25.926Z,7.30
2019-05-07T06:32:00.013Z,7.65
2019-05-07T06:34:26.804Z,13.88
2019-05-07T06:36:52.962Z,8.73
2019-05-07T06:39:23.569Z,9.65
2019-05-07T06:42:09.929Z,8.18
2019-05-07T06:44:36.080Z,8.15
2019-05-07T06:47:02.571Z,10.75
2019-05-07T06:49:28.808Z,10.05
2019-05-07T06:51:54.985Z,9.63
2019-05-07T06:54:22.578Z,9.35
2019-05-07T06:56:49.077Z,10.18
2019-05-07T06:59:22.348Z,9.50
2019-05-07T07:01:50.011Z,14.03
2019-05-07T07:04:18.101Z,12.10
2019-05-07T07:06:48.688Z,11.48
2019-05-07T07:09:19.664Z,10.15
2019-05-07T07:12:04.186Z,11.10
2019-05-07T07:14:32.971Z,11.95
2019-05-07T07:16:59.065Z,10.18
2019-05-07T07:19:25.304Z,11.85
2019-05-07T07:21:52.731Z,10.43
2019-05-07T07:24:19.291Z,11.73
2019-05-07T07:26:45.449Z,12.37
2019-05-07T07:29:13.544Z,11.45
2019-05-07T07:31:47.429Z,12.63
2019-05-07T07:34:13.814Z,12.50
2019-05-07T07:36:42.394Z,10.00
2019-05-07T07:39:08.852Z,9.58
2019-05-07T07:41:36.970Z,11.55
2019-05-07T07:44:03.357Z,10.25
2019-05-07T07:46:29.512Z,8.63
2019-05-07T07:49:06.623Z,10.70
2019-05-07T07:51:37.860Z,8.85
2019-05-07T07:53:52.069Z,8.95
2019-05-07T07:56:48.993Z,8.08
2019-05-07T07:59:09.901Z,9.30
2019-05-07T08:01:38.118Z,8.55
2019-05-07T08:04:04.293Z,7.17
2019-05-07T08:06:32.665Z,7.47
2019-05-07T08:08:59.041Z,6.92
2019-05-07T08:11:25.320Z,6.72
2019-05-07T08:13:52.874Z,7.75
2019-05-07T08:16:19.398Z,9.80
2019-05-07T08:18:46.797Z,9.48
2019-05-07T08:21:12.985Z,8.55
2019-05-07T08:23:39.149Z,8.30
2019-05-07T08:26:05.339Z,8.68
2019-05-07T08:28:32.057Z,9.80
2019-05-07T08:31:00.289Z,9.75
2019-05-07T08:33:28.348Z,7.33
2019-05-07T08:36:07.533Z,13.53
2019-05-07T08:38:35.598Z,10.80
2019-05-07T08:41:02.750Z,9.08
2019-05-07T08:43:29.049Z,10.75
2019-05-07T08:46:14.684Z,10.35
2019-05-07T08:48:42.837Z,9.50
2019-05-07T08:51:09.023Z,10.70
2019-05-07T08:53:35.236Z,7.70
2019-05-07T08:56:03.309Z,9.65
2019-05-07T08:58:31.601Z,7.47
2019-05-07T09:00:57.588Z,8.25
2019-05-07T09:03:42.960Z,12.98
2019-05-07T09:06:11.767Z,10.93
2019-05-07T09:08:38.025Z,9.23
2019-05-07T09:11:04.219Z,10.80
2019-05-07T09:13:32.953Z,7.97
2019-05-07T09:15:58.621Z,9.08
2019-05-07T09:18:24.783Z,7.30
2019-05-07T09:20:52.739Z,9.08
2019-05-07T09:23:19.041Z,7.80
2019-05-07T09:25:47.403Z,6.92
2019-05-07T09:28:13.897Z,8.28
2019-05-07T09:30:57.120Z,12.82
2019-05-07T09:33:28.399Z,8.78
2019-05-07T09:35:54.561Z,14.58
2019-05-07T09:38:22.328Z,9.73
2019-05-07T09:40:48.801Z,11.78
2019-05-07T09:43:14.965Z,7.37
2019-05-07T09:45:42.134Z,9.75
2019-05-07T09:48:08.569Z,8.13
2019-05-07T09:50:34.746Z,8.28
2019-05-07T09:53:02.322Z,10.98
2019-05-07T09:55:28.792Z,7.45
2019-05-07T09:57:54.960Z,8.93
2019-05-07T10:00:22.614Z,9.58
2019-05-07T10:02:49.060Z,9.18
2019-05-07T10:05:16.716Z,10.00
2019-05-07T10:07:42.892Z,8.40
2019-05-07T10:10:09.385Z,10.35
2019-05-07T10:12:43.267Z,6.78
2019-05-07T10:15:12.067Z,7.53
2019-05-07T10:17:40.085Z,11.15
2019-05-07T10:20:18.127Z,9.40
2019-05-07T10:22:35.244Z,8.50
2019-05-07T10:25:02.932Z,10.25
2019-05-07T10:27:29.707Z,8.38
2019-05-07T10:29:56.465Z,7.55
2019-05-07T10:32:23.652Z,10.35
2019-05-07T10:34:49.814Z,8.08
2019-05-07T10:37:16.228Z,9.43
2019-05-07T10:39:43.065Z,10.55
2019-05-07T10:42:09.773Z,11.25
2019-05-07T10:44:55.031Z,11.88
2019-05-07T10:47:42.275Z,8.75
2019-05-07T10:50:33.053Z,10.23
2019-05-07T10:52:49.175Z,10.48
2019-05-07T10:55:15.589Z,9.33
2019-05-07T10:57:42.374Z,8.20
2019-05-07T11:00:12.243Z,9.38
2019-05-07T11:02:39.314Z,8.83
2019-05-07T11:05:05.954Z,9.60
2019-05-07T11:07:32.779Z,9.10
2019-05-07T11:09:59.095Z,8.43
2019-05-07T11:12:25.378Z,9.45
2019-05-07T11:14:51.743Z,12.68
2019-05-07T11:17:22.320Z,6.95
2019-05-07T11:19:48.051Z,8.58
2019-05-07T11:22:14.215Z,11.08
2019-05-07T11:24:42.597Z,9.00
2019-05-07T11:27:08.540Z,9.83
2019-05-07T11:29:36.665Z,8.03
2019-05-07T11:32:03.035Z,8.05
2019-05-07T11:34:32.751Z,8.45
2019-05-07T11:36:59.342Z,8.60
2019-05-07T11:39:25.540Z,9.20
2019-05-07T11:41:56.389Z,9.08
2019-05-07T11:44:24.544Z,8.73
2019-05-07T11:46:58.173Z,8.50
2019-05-07T11:49:26.252Z,9.15
2019-05-07T11:51:59.969Z,10.82
2019-05-07T11:54:26.131Z,8.50
2019-05-07T11:56:55.409Z,10.48
2019-05-07T11:59:22.021Z,9.85
2019-05-07T12:01:52.594Z,12.30
2019-05-07T12:04:20.233Z,9.53
2019-05-07T12:06:46.417Z,10.78
2019-05-07T12:09:12.676Z,11.57
2019-05-07T12:11:39.038Z,11.48
2019-05-07T12:14:05.678Z,10.82
2019-05-07T12:16:32.207Z,13.35
2019-05-07T12:18:58.579Z,12.40
2019-05-07T12:21:24.767Z,16.25
2019-05-07T12:23:52.524Z,11.15
2019-05-07T12:26:22.256Z,10.53
2019-05-07T12:28:48.585Z,10.63
2019-05-07T12:31:33.688Z,11.93
2019-05-07T12:34:02.599Z,14.28
2019-05-07T12:36:28.994Z,12.55
2019-05-07T12:38:55.240Z,11.78
2019-05-07T12:41:33.705Z,10.25
2019-05-07T12:44:02.547Z,13.65
2019-05-07T12:46:30.093Z,11.05
2019-05-07T12:48:56.348Z,11.90
2019-05-07T12:51:33.529Z,12.75
2019-05-07T12:53:53.154Z,11.28
2019-05-07T12:56:19.345Z,9.90
2019-05-07T12:58:45.582Z,14.10
2019-05-07T13:01:23.007Z,11.50
2019-05-07T13:04:06.940Z,12.25
2019-05-07T13:06:35.037Z,13.18
2019-05-07T13:09:01.426Z,11.80
2019-05-07T13:11:29.493Z,13.18
2019-05-07T13:13:55.742Z,12.15
2019-05-07T13:16:22.143Z,10.40
2019-05-07T13:18:48.605Z,10.88
2019-05-07T13:21:15.874Z,13.10
2019-05-07T13:23:42.278Z,12.28
2019-05-07T13:26:08.714Z,11.15
2019-05-07T13:28:34.900Z,12.68
2019-05-07T13:31:02.383Z,13.32
2019-05-07T13:33:31.633Z,13.08
2019-05-07T13:36:02.177Z,9.78
2019-05-07T13:38:33.225Z,8.28
2019-05-07T13:41:13.572Z,11.80
2019-05-07T13:43:57.641Z,11.75
2019-05-07T13:46:23.968Z,10.98
2019-05-07T13:48:51.967Z,10.88
2019-05-07T13:51:18.355Z,14.23
2019-05-07T13:53:44.563Z,11.70
2019-05-07T13:56:12.701Z,12.15
2019-05-07T13:58:39.021Z,14.23
2019-05-07T14:01:07.174Z,12.03
2019-05-07T14:03:34.337Z,12.37
2019-05-07T14:06:01.727Z,11.40
2019-05-07T14:08:32.057Z,11.50
2019-05-07T14:10:58.548Z,10.90
2019-05-07T14:13:24.828Z,10.55
2019-05-07T14:16:07.323Z,12.82
2019-05-07T14:18:39.689Z,12.85
2019-05-07T14:21:06.631Z,11.75
2019-05-07T14:23:32.895Z,12.00
2019-05-07T14:25:59.156Z,13.85
2019-05-07T14:28:25.473Z,10.90
2019-05-07T14:30:52.320Z,13.45
2019-05-07T14:33:36.863Z,10.82
2019-05-07T14:36:07.687Z,11.90
2019-05-07T14:38:35.753Z,14.83
2019-05-07T14:41:02.681Z,14.30
2019-05-07T14:43:45.627Z,12.93
2019-05-07T14:46:13.617Z,12.60
2019-05-07T14:48:43.509Z,12.55
2019-05-07T14:51:08.122Z,11.80
2019-05-07T14:53:34.286Z,12.25
2019-05-07T14:56:00.860Z,14.38
2019-05-07T14:58:27.050Z,12.58
2019-05-07T15:00:53.223Z,12.10
2019-05-07T15:03:22.938Z,11.33
2019-05-07T15:05:49.346Z,9.95
2019-05-07T15:08:15.529Z,11.03
2019-05-07T15:10:41.973Z,11.30
2019-05-07T15:13:08.375Z,16.60
2019-05-07T15:15:34.631Z,12.55
2019-05-07T15:18:02.862Z,12.93
2019-05-07T15:20:29.170Z,12.13
2019-05-07T15:23:00.141Z,11.80
2019-05-07T15:25:26.709Z,12.28
2019-05-07T15:27:53.594Z,13.13
2019-05-07T15:30:21.954Z,13.90
2019-05-07T15:32:48.174Z,12.60
2019-05-07T15:35:14.437Z,14.05
2019-05-07T15:37:42.559Z,11.10
2019-05-07T15:40:08.798Z,12.47
2019-05-07T15:42:35.183Z,11.68
2019-05-07T15:45:02.299Z,12.37
2019-05-07T15:47:31.862Z,10.85
2019-05-07T15:49:58.125Z,15.30
2019-05-07T15:52:51.440Z,13.40
2019-05-07T15:55:12.526Z,13.15
2019-05-07T15:57:38.750Z,12.37
2019-05-07T16:00:08.018Z,14.50
2019-05-07T16:02:36.182Z,10.78
2019-05-07T16:05:04.988Z,10.05
2019-05-07T16:07:32.760Z,13.40
2019-05-07T16:09:59.216Z,10.90
2019-05-07T16:12:25.374Z,11.53
2019-05-07T16:14:52.504Z,12.80
2019-05-07T16:17:24.447Z,11.08
2019-05-07T16:19:54.595Z,13.10
2019-05-07T16:22:22.221Z,14.65
2019-05-07T16:24:48.670Z,12.18
2019-05-07T16:27:14.864Z,15.30
2019-05-07T16:29:42.059Z,11.38
2019-05-07T16:32:09.116Z,12.28
2019-05-07T16:34:35.266Z,11.93
2019-05-07T16:37:04.470Z,12.95
2019-05-07T16:39:29.574Z,13.48
2019-05-07T16:41:55.782Z,12.88
2019-05-07T16:44:22.575Z,12.05
2019-05-07T16:46:48.868Z,13.05
2019-05-07T16:49:15.063Z,13.90
2019-05-07T16:51:44.193Z,13.13
2019-05-07T16:54:09.301Z,12.20
2019-05-07T16:56:37.376Z,14.33
2019-05-07T16:59:07.565Z,11.83
2019-05-07T17:01:33.600Z,14.93
2019-05-07T17:04:00.056Z,11.80
2019-05-07T17:06:26.276Z,14.43
2019-05-07T17:08:57.491Z,13.40
2019-05-07T17:11:23.764Z,15.80
2019-05-07T17:13:51.893Z,14.28
2019-05-07T17:16:18.205Z,16.77
2019-05-07T17:18:44.435Z,12.35
2019-05-07T17:21:12.357Z,15.95
2019-05-07T17:23:44.234Z,14.03
2019-05-07T17:26:06.980Z,12.10
2019-05-07T17:28:33.317Z,14.20
2019-05-07T17:30:59.487Z,16.65
2019-05-07T17:33:25.666Z,12.43
2019-05-07T17:35:52.368Z,13.65
2019-05-07T17:38:18.556Z,13.28
2019-05-07T17:40:52.219Z,11.90
2019-05-07T17:43:18.711Z,11.80
2019-05-07T17:45:45.042Z,15.88
2019-05-07T17:48:12.302Z,9.45
2019-05-07T17:50:43.358Z,12.53
2019-05-07T17:53:11.968Z,14.55
2019-05-07T17:55:38.405Z,14.80
2019-05-07T17:58:04.580Z,13.43
2019-05-07T18:00:32.863Z,14.35
2019-05-07T18:03:02.600Z,15.00
2019-05-07T18:05:31.734Z,13.68
2019-05-07T18:07:58.076Z,10.60
2019-05-07T18:10:24.268Z,12.10
2019-05-07T18:12:53.322Z,10.82
2019-05-07T18:15:18.930Z,12.88
2019-05-07T18:17:47.025Z,11.25
2019-05-07T18:20:13.514Z,14.35
2019-05-07T18:22:39.829Z,10.70
2019-05-07T18:25:06.088Z,11.00
2019-05-07T18:27:32.951Z,10.65
2019-05-07T18:29:59.409Z,11.22
2019-05-07T18:32:27.470Z,11.08
2019-05-07T18:34:53.663Z,11.88
2019-05-07T18:37:19.988Z,14.65
2019-05-07T18:39:46.328Z,12.70
2019-05-07T18:42:12.785Z,9.95
2019-05-07T18:44:41.728Z,13.88
2019-05-07T18:47:08.140Z,9.53
2019-05-07T18:49:34.425Z,10.25
2019-05-07T18:52:02.704Z,17.25
2019-05-07T18:54:31.360Z,13.20
2019-05-07T18:56:57.566Z,7.92
2019-05-07T18:59:25.692Z,10.15
2019-05-07T19:01:52.719Z,11.50
2019-05-07T19:04:18.989Z,12.13
2019-05-07T19:06:46.314Z,9.63
2019-05-07T19:09:12.466Z,9.15
2019-05-07T19:11:38.660Z,11.55
2019-05-07T19:14:04.945Z,13.98
2019-05-07T19:16:32.336Z,11.80
2019-05-07T19:18:58.762Z,13.13
2019-05-07T19:21:24.991Z,10.38
2019-05-07T19:23:52.958Z,13.88
2019-05-07T19:26:19.252Z,12.45
2019-05-07T19:28:45.486Z,11.53
2019-05-07T19:31:12.462Z,14.73
2019-05-07T19:33:39.117Z,12.98
2019-05-07T19:36:05.341Z,10.70
2019-05-07T19:38:32.313Z,12.07
2019-05-07T19:41:02.032Z,17.00
2019-05-07T19:43:27.999Z,14.20
2019-05-07T19:45:54.202Z,12.82
2019-05-07T19:48:20.362Z,13.90
2019-05-07T19:50:46.554Z,14.28
2019-05-07T19:53:12.718Z,14.68
2019-05-07T19:55:57.480Z,13.58
2019-05-07T19:58:23.815Z,12.98
2019-05-07T20:00:56.722Z,15.63
2019-05-07T20:03:18.701Z,13.35
2019-05-07T20:05:44.961Z,13.00
2019-05-07T20:08:12.073Z,15.65
2019-05-07T20:10:43.173Z,12.75
2019-05-07T20:13:09.561Z,17.85
2019-05-07T20:15:36.830Z,16.55
2019-05-07T20:18:03.189Z,12.98
2019-05-07T20:20:29.610Z,12.53
2019-05-07T20:22:55.880Z,13.20
2019-05-07T20:25:22.653Z,15.15
2019-05-07T20:27:48.904Z,15.85
2019-05-07T20:30:16.407Z,13.10
2019-05-07T20:32:42.879Z,14.65
2019-05-07T20:35:09.414Z,15.18
2019-05-07T20:37:35.717Z,15.53
2019-05-07T20:40:04.088Z,12.10
2019-05-07T20:42:32.776Z,17.92
2019-05-07T20:44:59.187Z,17.87
2019-05-07T20:47:25.381Z,16.27
2019-05-07T20:49:51.559Z,13.85
2019-05-07T20:52:17.789Z,16.50
2019-05-07T20:54:48.391Z,15.32
2019-05-07T20:57:16.453Z,13.95
2019-05-07T20:59:42.637Z,16.23
2019-05-07T21:02:08.784Z,14.98
2019-05-07T21:04:35.185Z,14.23
2019-05-07T21:07:02.100Z,16.17
2019-05-07T21:09:28.650Z,16.23
2019-05-07T21:11:54.846Z,13.13
2019-05-07T21:14:22.763Z,13.10
2019-05-07T21:16:49.083Z,13.85
2019-05-07T21:19:15.280Z,15.93
2019-05-07T21:21:42.216Z,14.40
2019-05-07T21:24:08.612Z,14.00
2019-05-07T21:26:34.773Z,15.58
2019-05-07T21:29:03.035Z,15.03
2019-05-07T21:31:29.018Z,13.05
2019-05-07T21:33:55.241Z,16.23
2019-05-07T21:36:22.849Z,18.62
2019-05-07T21:38:49.319Z,15.88
2019-05-07T21:41:15.469Z,16.52
2019-05-07T21:43:45.607Z,17.90
2019-05-07T21:46:09.709Z,13.72
2019-05-07T21:48:35.906Z,17.65
2019-05-07T21:51:02.539Z,14.50
2019-05-07T21:53:32.352Z,16.80
2019-05-07T21:56:12.453Z,14.47
2019-05-07T21:58:40.539Z,14.63
2019-05-07T22:01:08.621Z,14.18
2019-05-07T22:03:38.438Z,16.35
2019-05-07T22:06:04.787Z,15.25
2019-05-07T22:08:32.624Z,12.85
2019-05-07T22:10:59.031Z,15.20
2019-05-07T22:13:28.089Z,13.45
2019-05-07T22:15:55.204Z,13.93
2019-05-07T22:18:22.659Z,12.88
2019-05-07T22:20:48.918Z,17.98
2019-05-07T22:23:15.097Z,11.68
2019-05-07T22:25:42.191Z,12.88
2019-05-07T22:28:08.791Z,14.40
2019-05-07T22:30:41.775Z,13.18
2019-05-07T22:33:15.717Z,12.05
2019-05-07T22:35:43.596Z,13.83
2019-05-07T22:38:28.241Z,15.90
2019-05-07T22:40:55.096Z,15.40
2019-05-07T22:43:22.983Z,12.30
2019-05-07T22:45:50.164Z,14.38
2019-05-07T22:48:16.351Z,16.55
2019-05-07T22:50:44.108Z,15.70
2019-05-07T22:53:12.490Z,13.68
2019-05-07T22:55:38.460Z,13.58
2019-05-07T22:58:15.647Z,12.65
2019-05-07T23:00:43.713Z,14.03
2019-05-07T23:03:12.342Z,11.57
2019-05-07T23:05:38.701Z,17.10
2019-05-07T23:08:04.911Z,15.95
2019-05-07T23:10:33.095Z,21.07
2019-05-07T23:12:59.261Z,14.03
2019-05-07T23:15:25.433Z,14.43
2019-05-07T23:17:51.687Z,13.30
2019-05-07T23:20:17.965Z,16.82
2019-05-07T23:22:44.141Z,14.63
2019-05-07T23:25:10.354Z,12.80
2019-05-07T23:27:36.509Z,12.85
2019-05-07T23:30:04.123Z,13.78
2019-05-07T23:32:30.276Z,13.85
2019-05-07T23:34:56.491Z,13.15
2019-05-07T23:37:22.718Z,17.32
2019-05-07T23:39:51.961Z,15.83
2019-05-07T23:42:23.287Z,15.43
2019-05-07T23:44:49.470Z,15.88
2019-05-07T23:47:15.633Z,18.25
2019-05-07T23:49:43.046Z,17.05
2019-05-07T23:52:09.398Z,15.48
2019-05-07T23:54:35.569Z,16.73
2019-05-07T23:57:06.975Z,17.40
2019-05-07T23:59:32.905Z,14.35
